Girouxville, Canada
Current Conditions -  °F | °C
As of 11:00 AM on Saturday 20 Dec 2014 (Local Time) from CYPE Reporting Station
Broken Clouds Broken Clouds  
Wind Chill: -15°   Ceiling: 25000
Heat Index: -11°   Visibility: 15mi
Dew Point: -12°   Wind: 5mph
Humidity: 92%   Direction: 280°W
Pressure: 29.51"   Gusts: NA
Location:  55.75°N, 117.33°W
Report Text: CYPE 201800Z 28004KT 15SM BKN250 M11/M12 A2951 RMK CI7 SLP036
Loading
Personal Weather Stations






























Interactive Weather Map New forecast layout! Learn more

10-Day Weather Forecast

Advertisements
Track Severe Weather on mobile